sensor_id;sensor_type;location;lat;lon;timestamp;P1;durP1;ratioP1;P2;durP2;ratioP2
69030;SDS011;56083;48.774;8.942;2024-03-22T00:01:48;48.55;;;26.52;;
69030;SDS011;56083;48.774;8.942;2024-03-22T00:04:15;41.75;;;25.33;;
69030;SDS011;56083;48.774;8.942;2024-03-22T00:06:41;44.88;;;26.20;;
69030;SDS011;56083;48.774;8.942;2024-03-22T00:09:08;44.20;;;26.02;;
69030;SDS011;56083;48.774;8.942;2024-03-22T00:11:34;39.22;;;24.98;;
69030;SDS011;56083;48.774;8.942;2024-03-22T00:14:00;42.65;;;25.92;;
69030;SDS011;56083;48.774;8.942;2024-03-22T00:16:26;45.67;;;24.77;;
69030;SDS011;56083;48.774;8.942;2024-03-22T00:18:52;39.05;;;25.10;;
69030;SDS011;56083;48.774;8.942;2024-03-22T00:21:18;43.75;;;25.77;;
69030;SDS011;56083;48.774;8.942;2024-03-22T00:23:45;44.35;;;25.05;;
69030;SDS011;56083;48.774;8.942;2024-03-22T00:26:11;43.15;;;23.50;;
69030;SDS011;56083;48.774;8.942;2024-03-22T00:28:37;43.85;;;24.65;;
69030;SDS011;56083;48.774;8.942;2024-03-22T00:31:03;46.25;;;25.95;;
69030;SDS011;56083;48.774;8.942;2024-03-22T00:33:29;42.50;;;24.88;;
69030;SDS011;56083;48.774;8.942;2024-03-22T00:35:55;45.72;;;26.63;;
69030;SDS011;56083;48.774;8.942;2024-03-22T00:38:21;44.17;;;26.50;;
69030;SDS011;56083;48.774;8.942;2024-03-22T00:40:47;47.70;;;26.08;;
69030;SDS011;56083;48.774;8.942;2024-03-22T00:43:13;47.28;;;26.67;;
69030;SDS011;56083;48.774;8.942;2024-03-22T00:45:39;41.75;;;25.67;;
69030;SDS011;56083;48.774;8.942;2024-03-22T00:48:05;49.75;;;27.00;;
69030;SDS011;56083;48.774;8.942;2024-03-22T00:50:31;47.40;;;26.60;;
69030;SDS011;56083;48.774;8.942;2024-03-22T00:52:57;43.95;;;25.92;;
69030;SDS011;56083;48.774;8.942;2024-03-22T00:55:23;47.78;;;26.42;;
69030;SDS011;56083;48.774;8.942;2024-03-22T00:57:50;46.70;;;25.60;;
69030;SDS011;56083;48.774;8.942;2024-03-22T01:00:16;44.40;;;25.27;;
69030;SDS011;56083;48.774;8.942;2024-03-22T01:02:42;44.60;;;25.55;;
69030;SDS011;56083;48.774;8.942;2024-03-22T01:05:09;41.30;;;24.70;;
69030;SDS011;56083;48.774;8.942;2024-03-22T01:07:35;46.55;;;26.13;;
69030;SDS011;56083;48.774;8.942;2024-03-22T01:10:01;46.85;;;25.27;;
69030;SDS011;56083;48.774;8.942;2024-03-22T01:12:27;45.05;;;24.80;;
69030;SDS011;56083;48.774;8.942;2024-03-22T01:14:53;46.35;;;25.65;;
69030;SDS011;56083;48.774;8.942;2024-03-22T01:17:19;41.97;;;24.65;;
69030;SDS011;56083;48.774;8.942;2024-03-22T01:19:45;42.33;;;24.25;;
69030;SDS011;56083;48.774;8.942;2024-03-22T01:22:11;39.35;;;23.63;;
69030;SDS011;56083;48.774;8.942;2024-03-22T01:24:37;41.33;;;25.13;;
69030;SDS011;56083;48.774;8.942;2024-03-22T01:27:03;42.00;;;25.23;;
69030;SDS011;56083;48.774;8.942;2024-03-22T01:29:30;41.40;;;24.88;;
69030;SDS011;56083;48.774;8.942;2024-03-22T01:31:57;43.47;;;24.10;;
69030;SDS011;56083;48.774;8.942;2024-03-22T01:34:24;36.45;;;23.67;;
69030;SDS011;56083;48.774;8.942;2024-03-22T01:36:50;37.10;;;22.75;;
69030;SDS011;56083;48.774;8.942;2024-03-22T01:39:16;47.67;;;24.13;;
69030;SDS011;56083;48.774;8.942;2024-03-22T01:41:43;37.13;;;22.27;;
69030;SDS011;56083;48.774;8.942;2024-03-22T01:44:09;38.20;;;24.88;;
69030;SDS011;56083;48.774;8.942;2024-03-22T01:46:37;40.30;;;21.95;;
69030;SDS011;56083;48.774;8.942;2024-03-22T01:49:03;35.90;;;22.30;;
69030;SDS011;56083;48.774;8.942;2024-03-22T01:51:29;40.00;;;23.23;;
69030;SDS011;56083;48.774;8.942;2024-03-22T01:53:55;40.55;;;23.88;;
69030;SDS011;56083;48.774;8.942;2024-03-22T01:56:21;43.33;;;25.38;;
69030;SDS011;56083;48.774;8.942;2024-03-22T01:58:47;48.00;;;25.83;;
69030;SDS011;56083;48.774;8.942;2024-03-22T02:01:13;45.22;;;25.90;;
69030;SDS011;56083;48.774;8.942;2024-03-22T02:03:39;43.38;;;24.42;;
69030;SDS011;56083;48.774;8.942;2024-03-22T02:06:05;40.22;;;25.00;;
69030;SDS011;56083;48.774;8.942;2024-03-22T02:08:31;40.20;;;24.35;;
69030;SDS011;56083;48.774;8.942;2024-03-22T02:10:57;45.22;;;26.30;;
69030;SDS011;56083;48.774;8.942;2024-03-22T02:13:23;42.78;;;25.70;;
69030;SDS011;56083;48.774;8.942;2024-03-22T02:15:49;44.92;;;24.92;;
69030;SDS011;56083;48.774;8.942;2024-03-22T02:18:15;47.92;;;25.40;;
69030;SDS011;56083;48.774;8.942;2024-03-22T02:20:41;43.78;;;24.83;;
69030;SDS011;56083;48.774;8.942;2024-03-22T02:23:07;43.63;;;24.45;;
69030;SDS011;56083;48.774;8.942;2024-03-22T02:25:33;46.20;;;26.15;;
69030;SDS011;56083;48.774;8.942;2024-03-22T02:27:59;45.78;;;26.02;;
69030;SDS011;56083;48.774;8.942;2024-03-22T02:30:25;44.40;;;26.15;;
69030;SDS011;56083;48.774;8.942;2024-03-22T02:32:51;48.30;;;27.42;;
69030;SDS011;56083;48.774;8.942;2024-03-22T02:35:18;44.90;;;27.52;;
69030;SDS011;56083;48.774;8.942;2024-03-22T02:37:44;49.50;;;27.92;;
69030;SDS011;56083;48.774;8.942;2024-03-22T02:40:10;45.90;;;27.45;;
69030;SDS011;56083;48.774;8.942;2024-03-22T02:42:36;50.35;;;27.08;;
69030;SDS011;56083;48.774;8.942;2024-03-22T02:45:03;42.83;;;27.27;;
69030;SDS011;56083;48.774;8.942;2024-03-22T02:47:30;47.35;;;26.95;;
69030;SDS011;56083;48.774;8.942;2024-03-22T02:49:55;41.72;;;25.70;;
69030;SDS011;56083;48.774;8.942;2024-03-22T02:52:21;41.80;;;24.42;;
69030;SDS011;56083;48.774;8.942;2024-03-22T02:54:47;40.30;;;23.88;;
69030;SDS011;56083;48.774;8.942;2024-03-22T02:57:13;43.70;;;23.95;;
69030;SDS011;56083;48.774;8.942;2024-03-22T02:59:41;39.35;;;23.13;;
69030;SDS011;56083;48.774;8.942;2024-03-22T03:02:07;37.63;;;22.77;;
69030;SDS011;56083;48.774;8.942;2024-03-22T03:04:33;36.28;;;21.40;;
69030;SDS011;56083;48.774;8.942;2024-03-22T03:06:59;37.40;;;22.85;;
69030;SDS011;56083;48.774;8.942;2024-03-22T03:09:25;42.40;;;23.27;;
69030;SDS011;56083;48.774;8.942;2024-03-22T03:11:51;38.42;;;23.48;;
69030;SDS011;56083;48.774;8.942;2024-03-22T03:14:17;39.78;;;23.83;;
69030;SDS011;56083;48.774;8.942;2024-03-22T03:16:43;42.55;;;24.15;;
69030;SDS011;56083;48.774;8.942;2024-03-22T03:19:09;36.22;;;22.98;;
69030;SDS011;56083;48.774;8.942;2024-03-22T03:21:35;40.53;;;22.95;;
69030;SDS011;56083;48.774;8.942;2024-03-22T03:24:01;36.33;;;22.70;;
69030;SDS011;56083;48.774;8.942;2024-03-22T03:26:27;36.63;;;22.45;;
69030;SDS011;56083;48.774;8.942;2024-03-22T03:28:53;44.40;;;22.98;;
69030;SDS011;56083;48.774;8.942;2024-03-22T03:31:20;38.65;;;22.33;;
69030;SDS011;56083;48.774;8.942;2024-03-22T03:33:46;39.67;;;21.38;;
69030;SDS011;56083;48.774;8.942;2024-03-22T03:36:12;38.35;;;22.27;;
69030;SDS011;56083;48.774;8.942;2024-03-22T03:38:38;35.67;;;21.60;;
69030;SDS011;56083;48.774;8.942;2024-03-22T03:41:04;35.78;;;20.73;;
69030;SDS011;56083;48.774;8.942;2024-03-22T03:43:30;33.13;;;21.52;;
69030;SDS011;56083;48.774;8.942;2024-03-22T03:45:56;34.95;;;20.95;;
69030;SDS011;56083;48.774;8.942;2024-03-22T03:48:22;29.98;;;20.30;;
69030;SDS011;56083;48.774;8.942;2024-03-22T03:50:52;36.67;;;21.17;;
69030;SDS011;56083;48.774;8.942;2024-03-22T03:53:19;34.45;;;20.85;;
69030;SDS011;56083;48.774;8.942;2024-03-22T03:55:45;31.52;;;21.15;;
69030;SDS011;56083;48.774;8.942;2024-03-22T03:58:11;31.42;;;20.10;;
69030;SDS011;56083;48.774;8.942;2024-03-22T04:00:37;37.17;;;19.80;;
69030;SDS011;56083;48.774;8.942;2024-03-22T04:03:03;33.72;;;20.25;;
69030;SDS011;56083;48.774;8.942;2024-03-22T04:05:29;34.55;;;20.27;;
69030;SDS011;56083;48.774;8.942;2024-03-22T04:07:55;32.03;;;18.98;;
69030;SDS011;56083;48.774;8.942;2024-03-22T04:10:21;31.13;;;19.70;;
69030;SDS011;56083;48.774;8.942;2024-03-22T04:12:47;33.70;;;20.48;;
69030;SDS011;56083;48.774;8.942;2024-03-22T04:15:13;30.02;;;20.15;;
69030;SDS011;56083;48.774;8.942;2024-03-22T04:17:39;33.33;;;19.92;;
69030;SDS011;56083;48.774;8.942;2024-03-22T04:20:05;33.33;;;18.50;;
69030;SDS011;56083;48.774;8.942;2024-03-22T04:22:32;29.55;;;18.38;;
69030;SDS011;56083;48.774;8.942;2024-03-22T04:24:58;31.20;;;19.48;;
69030;SDS011;56083;48.774;8.942;2024-03-22T04:27:25;30.48;;;18.40;;
69030;SDS011;56083;48.774;8.942;2024-03-22T04:29:51;30.73;;;18.73;;
69030;SDS011;56083;48.774;8.942;2024-03-22T04:32:17;31.13;;;19.50;;
69030;SDS011;56083;48.774;8.942;2024-03-22T04:34:43;27.80;;;18.85;;
69030;SDS011;56083;48.774;8.942;2024-03-22T04:37:10;36.95;;;19.45;;
69030;SDS011;56083;48.774;8.942;2024-03-22T04:39:37;36.35;;;20.05;;
69030;SDS011;56083;48.774;8.942;2024-03-22T04:42:03;29.50;;;19.05;;
69030;SDS011;56083;48.774;8.942;2024-03-22T04:44:29;31.58;;;18.58;;
69030;SDS011;56083;48.774;8.942;2024-03-22T04:46:55;30.80;;;18.38;;
69030;SDS011;56083;48.774;8.942;2024-03-22T04:49:21;26.90;;;18.23;;
69030;SDS011;56083;48.774;8.942;2024-03-22T04:51:47;28.50;;;17.52;;
69030;SDS011;56083;48.774;8.942;2024-03-22T04:54:13;31.77;;;18.10;;
69030;SDS011;56083;48.774;8.942;2024-03-22T04:56:41;28.35;;;17.73;;
69030;SDS011;56083;48.774;8.942;2024-03-22T04:59:07;31.15;;;18.30;;
69030;SDS011;56083;48.774;8.942;2024-03-22T05:01:33;27.27;;;17.63;;
69030;SDS011;56083;48.774;8.942;2024-03-22T05:03:59;26.80;;;16.52;;
69030;SDS011;56083;48.774;8.942;2024-03-22T05:06:25;25.98;;;16.92;;
69030;SDS011;56083;48.774;8.942;2024-03-22T05:08:51;32.85;;;17.45;;
69030;SDS011;56083;48.774;8.942;2024-03-22T05:11:17;31.73;;;17.77;;
69030;SDS011;56083;48.774;8.942;2024-03-22T05:13:43;25.45;;;17.25;;
69030;SDS011;56083;48.774;8.942;2024-03-22T05:16:09;32.53;;;18.33;;
69030;SDS011;56083;48.774;8.942;2024-03-22T05:18:37;27.42;;;18.00;;
69030;SDS011;56083;48.774;8.942;2024-03-22T05:21:03;35.30;;;18.38;;
69030;SDS011;56083;48.774;8.942;2024-03-22T05:23:29;27.55;;;17.60;;
69030;SDS011;56083;48.774;8.942;2024-03-22T05:25:55;29.52;;;18.80;;
69030;SDS011;56083;48.774;8.942;2024-03-22T05:28:21;29.45;;;17.98;;
69030;SDS011;56083;48.774;8.942;2024-03-22T05:30:47;29.02;;;18.13;;
69030;SDS011;56083;48.774;8.942;2024-03-22T05:33:13;32.83;;;18.45;;
69030;SDS011;56083;48.774;8.942;2024-03-22T05:35:39;32.47;;;17.60;;
69030;SDS011;56083;48.774;8.942;2024-03-22T05:38:06;32.78;;;19.30;;
69030;SDS011;56083;48.774;8.942;2024-03-22T05:40:32;33.45;;;19.33;;
69030;SDS011;56083;48.774;8.942;2024-03-22T05:42:58;30.60;;;19.35;;
69030;SDS011;56083;48.774;8.942;2024-03-22T05:45:24;31.63;;;19.77;;
69030;SDS011;56083;48.774;8.942;2024-03-22T05:47:50;30.17;;;20.15;;
69030;SDS011;56083;48.774;8.942;2024-03-22T05:50:16;32.25;;;19.98;;
69030;SDS011;56083;48.774;8.942;2024-03-22T05:52:42;36.05;;;20.25;;
69030;SDS011;56083;48.774;8.942;2024-03-22T05:55:08;32.30;;;19.58;;
69030;SDS011;56083;48.774;8.942;2024-03-22T05:57:34;32.88;;;19.38;;
69030;SDS011;56083;48.774;8.942;2024-03-22T06:00:00;32.22;;;18.67;;
69030;SDS011;56083;48.774;8.942;2024-03-22T06:02:27;32.20;;;17.92;;
69030;SDS011;56083;48.774;8.942;2024-03-22T06:04:53;33.08;;;18.60;;
69030;SDS011;56083;48.774;8.942;2024-03-22T06:07:19;31.08;;;18.70;;
69030;SDS011;56083;48.774;8.942;2024-03-22T06:09:45;28.60;;;17.30;;
69030;SDS011;56083;48.774;8.942;2024-03-22T06:12:17;32.70;;;18.10;;
69030;SDS011;56083;48.774;8.942;2024-03-22T06:14:43;29.95;;;17.15;;
69030;SDS011;56083;48.774;8.942;2024-03-22T06:17:09;26.95;;;16.55;;
69030;SDS011;56083;48.774;8.942;2024-03-22T06:19:35;32.33;;;15.75;;
69030;SDS011;56083;48.774;8.942;2024-03-22T06:22:02;21.63;;;14.95;;
69030;SDS011;56083;48.774;8.942;2024-03-22T06:24:28;28.38;;;15.25;;
69030;SDS011;56083;48.774;8.942;2024-03-22T06:26:54;23.92;;;14.38;;
69030;SDS011;56083;48.774;8.942;2024-03-22T06:29:20;21.23;;;13.57;;
69030;SDS011;56083;48.774;8.942;2024-03-22T06:31:46;25.05;;;12.82;;
69030;SDS011;56083;48.774;8.942;2024-03-22T06:34:12;21.33;;;11.82;;
69030;SDS011;56083;48.774;8.942;2024-03-22T06:36:38;22.17;;;11.38;;
69030;SDS011;56083;48.774;8.942;2024-03-22T06:39:04;16.33;;;10.55;;
69030;SDS011;56083;48.774;8.942;2024-03-22T06:41:32;18.00;;;10.60;;
69030;SDS011;56083;48.774;8.942;2024-03-22T06:43:58;26.27;;;11.18;;
69030;SDS011;56083;48.774;8.942;2024-03-22T06:46:24;23.30;;;10.95;;
69030;SDS011;56083;48.774;8.942;2024-03-22T06:48:52;19.05;;;10.20;;
69030;SDS011;56083;48.774;8.942;2024-03-22T06:51:18;15.05;;;9.30;;
69030;SDS011;56083;48.774;8.942;2024-03-22T06:53:44;19.52;;;10.55;;
69030;SDS011;56083;48.774;8.942;2024-03-22T06:56:13;17.92;;;10.73;;
69030;SDS011;56083;48.774;8.942;2024-03-22T06:58:39;17.13;;;8.90;;
69030;SDS011;56083;48.774;8.942;2024-03-22T07:01:05;14.90;;;10.25;;
69030;SDS011;56083;48.774;8.942;2024-03-22T07:03:31;18.55;;;10.75;;
69030;SDS011;56083;48.774;8.942;2024-03-22T07:05:57;21.40;;;10.73;;
69030;SDS011;56083;48.774;8.942;2024-03-22T07:08:23;16.35;;;9.77;;
69030;SDS011;56083;48.774;8.942;2024-03-22T07:10:50;20.48;;;10.00;;
69030;SDS011;56083;48.774;8.942;2024-03-22T07:13:18;18.73;;;9.50;;
69030;SDS011;56083;48.774;8.942;2024-03-22T07:15:44;16.30;;;8.93;;
69030;SDS011;56083;48.774;8.942;2024-03-22T07:18:11;18.92;;;9.00;;
69030;SDS011;56083;48.774;8.942;2024-03-22T07:20:37;14.95;;;8.63;;
69030;SDS011;56083;48.774;8.942;2024-03-22T07:23:03;15.93;;;8.65;;
69030;SDS011;56083;48.774;8.942;2024-03-22T07:25:29;14.90;;;8.02;;
69030;SDS011;56083;48.774;8.942;2024-03-22T07:27:55;13.52;;;7.75;;
69030;SDS011;56083;48.774;8.942;2024-03-22T07:30:21;15.15;;;7.53;;
69030;SDS011;56083;48.774;8.942;2024-03-22T07:32:49;13.40;;;7.13;;
69030;SDS011;56083;48.774;8.942;2024-03-22T07:35:15;12.80;;;7.55;;
69030;SDS011;56083;48.774;8.942;2024-03-22T07:37:40;13.80;;;7.18;;
69030;SDS011;56083;48.774;8.942;2024-03-22T07:40:07;15.63;;;6.90;;
69030;SDS011;56083;48.774;8.942;2024-03-22T07:42:33;11.90;;;6.70;;
69030;SDS011;56083;48.774;8.942;2024-03-22T07:44:59;14.93;;;6.28;;
69030;SDS011;56083;48.774;8.942;2024-03-22T07:47:25;16.13;;;6.85;;
69030;SDS011;56083;48.774;8.942;2024-03-22T07:49:51;19.52;;;6.75;;
69030;SDS011;56083;48.774;8.942;2024-03-22T07:52:19;15.52;;;7.00;;
69030;SDS011;56083;48.774;8.942;2024-03-22T07:54:46;13.32;;;6.82;;
69030;SDS011;56083;48.774;8.942;2024-03-22T07:57:12;14.50;;;6.30;;
69030;SDS011;56083;48.774;8.942;2024-03-22T07:59:38;14.38;;;5.78;;
69030;SDS011;56083;48.774;8.942;2024-03-22T08:02:04;16.60;;;6.53;;
69030;SDS011;56083;48.774;8.942;2024-03-22T08:04:30;18.38;;;5.97;;
69030;SDS011;56083;48.774;8.942;2024-03-22T08:06:56;14.27;;;6.05;;
69030;SDS011;56083;48.774;8.942;2024-03-22T08:09:22;13.10;;;5.53;;
69030;SDS011;56083;48.774;8.942;2024-03-22T08:11:48;19.40;;;6.20;;
69030;SDS011;56083;48.774;8.942;2024-03-22T08:14:14;22.65;;;5.65;;
69030;SDS011;56083;48.774;8.942;2024-03-22T08:16:41;22.40;;;6.50;;
69030;SDS011;56083;48.774;8.942;2024-03-22T08:19:09;18.00;;;5.93;;
69030;SDS011;56083;48.774;8.942;2024-03-22T08:21:35;18.75;;;6.85;;
69030;SDS011;56083;48.774;8.942;2024-03-22T08:24:01;19.10;;;6.95;;
69030;SDS011;56083;48.774;8.942;2024-03-22T08:26:27;21.25;;;6.90;;
69030;SDS011;56083;48.774;8.942;2024-03-22T08:28:53;18.50;;;6.70;;
69030;SDS011;56083;48.774;8.942;2024-03-22T08:31:19;33.45;;;6.93;;
69030;SDS011;56083;48.774;8.942;2024-03-22T08:33:50;23.02;;;6.60;;
69030;SDS011;56083;48.774;8.942;2024-03-22T08:36:16;17.42;;;7.10;;
69030;SDS011;56083;48.774;8.942;2024-03-22T08:38:42;19.95;;;7.38;;
69030;SDS011;56083;48.774;8.942;2024-03-22T08:41:08;17.40;;;6.93;;
69030;SDS011;56083;48.774;8.942;2024-03-22T08:43:34;14.02;;;6.97;;
69030;SDS011;56083;48.774;8.942;2024-03-22T08:46:00;12.65;;;6.47;;
69030;SDS011;56083;48.774;8.942;2024-03-22T08:48:26;14.68;;;6.47;;
69030;SDS011;56083;48.774;8.942;2024-03-22T08:50:52;13.73;;;6.57;;
69030;SDS011;56083;48.774;8.942;2024-03-22T08:53:18;14.48;;;7.00;;
69030;SDS011;56083;48.774;8.942;2024-03-22T08:55:47;16.00;;;7.13;;
69030;SDS011;56083;48.774;8.942;2024-03-22T08:58:14;10.63;;;6.30;;
69030;SDS011;56083;48.774;8.942;2024-03-22T09:00:49;9.23;;;6.40;;
69030;SDS011;56083;48.774;8.942;2024-03-22T09:03:15;16.40;;;6.20;;
69030;SDS011;56083;48.774;8.942;2024-03-22T09:05:42;14.43;;;5.82;;
69030;SDS011;56083;48.774;8.942;2024-03-22T09:08:08;12.27;;;5.45;;
69030;SDS011;56083;48.774;8.942;2024-03-22T09:10:34;15.85;;;6.32;;
69030;SDS011;56083;48.774;8.942;2024-03-22T09:13:00;13.23;;;5.90;;
69030;SDS011;56083;48.774;8.942;2024-03-22T09:15:27;10.20;;;6.03;;
69030;SDS011;56083;48.774;8.942;2024-03-22T09:17:53;14.63;;;6.20;;
69030;SDS011;56083;48.774;8.942;2024-03-22T09:20:19;10.95;;;5.97;;
69030;SDS011;56083;48.774;8.942;2024-03-22T09:22:45;10.13;;;5.30;;
69030;SDS011;56083;48.774;8.942;2024-03-22T09:25:11;9.18;;;5.32;;
69030;SDS011;56083;48.774;8.942;2024-03-22T09:27:37;10.93;;;5.15;;
69030;SDS011;56083;48.774;8.942;2024-03-22T09:30:04;11.05;;;4.82;;
69030;SDS011;56083;48.774;8.942;2024-03-22T09:32:30;8.23;;;4.22;;
69030;SDS011;56083;48.774;8.942;2024-03-22T09:34:56;9.57;;;3.95;;
69030;SDS011;56083;48.774;8.942;2024-03-22T09:37:22;9.55;;;4.03;;
69030;SDS011;56083;48.774;8.942;2024-03-22T09:39:48;7.85;;;3.90;;
69030;SDS011;56083;48.774;8.942;2024-03-22T09:42:17;12.10;;;4.38;;
69030;SDS011;56083;48.774;8.942;2024-03-22T09:44:46;7.22;;;3.85;;
69030;SDS011;56083;48.774;8.942;2024-03-22T09:47:16;10.98;;;3.85;;
69030;SDS011;56083;48.774;8.942;2024-03-22T09:49:43;5.90;;;3.60;;
69030;SDS011;56083;48.774;8.942;2024-03-22T09:52:13;9.38;;;3.97;;
69030;SDS011;56083;48.774;8.942;2024-03-22T09:54:43;7.00;;;3.78;;
69030;SDS011;56083;48.774;8.942;2024-03-22T09:57:11;5.22;;;3.40;;
69030;SDS011;56083;48.774;8.942;2024-03-22T09:59:39;13.95;;;3.63;;
69030;SDS011;56083;48.774;8.942;2024-03-22T10:02:05;9.23;;;3.92;;
69030;SDS011;56083;48.774;8.942;2024-03-22T10:04:32;5.88;;;3.47;;
69030;SDS011;56083;48.774;8.942;2024-03-22T10:07:01;7.80;;;3.22;;
69030;SDS011;56083;48.774;8.942;2024-03-22T10:09:28;6.53;;;3.45;;
69030;SDS011;56083;48.774;8.942;2024-03-22T10:11:55;6.07;;;3.40;;
69030;SDS011;56083;48.774;8.942;2024-03-22T10:14:21;6.43;;;3.72;;
69030;SDS011;56083;48.774;8.942;2024-03-22T10:16:50;5.60;;;2.95;;
69030;SDS011;56083;48.774;8.942;2024-03-22T10:19:18;5.97;;;2.75;;
69030;SDS011;56083;48.774;8.942;2024-03-22T10:21:44;6.75;;;3.60;;
69030;SDS011;56083;48.774;8.942;2024-03-22T10:24:10;6.53;;;3.50;;
69030;SDS011;56083;48.774;8.942;2024-03-22T10:26:36;8.15;;;3.47;;
69030;SDS011;56083;48.774;8.942;2024-03-22T10:29:05;9.10;;;3.50;;
69030;SDS011;56083;48.774;8.942;2024-03-22T10:31:33;7.55;;;3.35;;
69030;SDS011;56083;48.774;8.942;2024-03-22T10:34:02;10.13;;;3.38;;
69030;SDS011;56083;48.774;8.942;2024-03-22T10:36:31;7.88;;;2.80;;
69030;SDS011;56083;48.774;8.942;2024-03-22T10:38:58;5.65;;;2.53;;
69030;SDS011;56083;48.774;8.942;2024-03-22T10:41:25;5.47;;;2.22;;
69030;SDS011;56083;48.774;8.942;2024-03-22T10:43:51;7.13;;;2.85;;
69030;SDS011;56083;48.774;8.942;2024-03-22T10:46:17;2.95;;;2.40;;
69030;SDS011;56083;48.774;8.942;2024-03-22T10:48:45;5.95;;;2.80;;
69030;SDS011;56083;48.774;8.942;2024-03-22T10:51:12;6.65;;;2.70;;
69030;SDS011;56083;48.774;8.942;2024-03-22T10:53:40;6.38;;;3.10;;
69030;SDS011;56083;48.774;8.942;2024-03-22T10:56:07;7.45;;;2.95;;
69030;SDS011;56083;48.774;8.942;2024-03-22T10:58:34;5.97;;;3.08;;
69030;SDS011;56083;48.774;8.942;2024-03-22T11:01:04;7.15;;;2.90;;
69030;SDS011;56083;48.774;8.942;2024-03-22T11:03:30;7.78;;;2.83;;
69030;SDS011;56083;48.774;8.942;2024-03-22T11:05:58;5.25;;;2.60;;
69030;SDS011;56083;48.774;8.942;2024-03-22T11:08:28;6.95;;;3.08;;
69030;SDS011;56083;48.774;8.942;2024-03-22T11:10:54;6.82;;;2.75;;
69030;SDS011;56083;48.774;8.942;2024-03-22T11:13:22;6.45;;;2.50;;
69030;SDS011;56083;48.774;8.942;2024-03-22T11:15:48;5.30;;;2.50;;
69030;SDS011;56083;48.774;8.942;2024-03-22T11:18:14;4.80;;;2.30;;
69030;SDS011;56083;48.774;8.942;2024-03-22T11:20:41;7.53;;;2.90;;
69030;SDS011;56083;48.774;8.942;2024-03-22T11:23:07;7.00;;;2.42;;
69030;SDS011;56083;48.774;8.942;2024-03-22T11:25:34;5.40;;;2.47;;
69030;SDS011;56083;48.774;8.942;2024-03-22T11:28:01;4.88;;;2.55;;
69030;SDS011;56083;48.774;8.942;2024-03-22T11:30:30;5.10;;;2.60;;
69030;SDS011;56083;48.774;8.942;2024-03-22T11:32:57;6.10;;;2.47;;
69030;SDS011;56083;48.774;8.942;2024-03-22T11:35:23;7.57;;;2.53;;
69030;SDS011;56083;48.774;8.942;2024-03-22T11:37:49;4.30;;;2.28;;
69030;SDS011;56083;48.774;8.942;2024-03-22T11:40:16;3.53;;;2.10;;
69030;SDS011;56083;48.774;8.942;2024-03-22T11:42:43;4.72;;;2.05;;
69030;SDS011;56083;48.774;8.942;2024-03-22T11:45:11;9.95;;;1.98;;
69030;SDS011;56083;48.774;8.942;2024-03-22T11:47:38;5.10;;;2.30;;
69030;SDS011;56083;48.774;8.942;2024-03-22T11:50:04;5.85;;;2.40;;
69030;SDS011;56083;48.774;8.942;2024-03-22T11:52:30;7.80;;;2.50;;
69030;SDS011;56083;48.774;8.942;2024-03-22T11:54:56;6.15;;;2.83;;
69030;SDS011;56083;48.774;8.942;2024-03-22T11:57:23;5.75;;;2.10;;
69030;SDS011;56083;48.774;8.942;2024-03-22T11:59:50;2.90;;;1.85;;
69030;SDS011;56083;48.774;8.942;2024-03-22T12:02:17;5.97;;;2.42;;
69030;SDS011;56083;48.774;8.942;2024-03-22T12:04:45;5.80;;;2.03;;
69030;SDS011;56083;48.774;8.942;2024-03-22T12:07:15;7.97;;;2.72;;
69030;SDS011;56083;48.774;8.942;2024-03-22T12:09:42;5.65;;;2.05;;
69030;SDS011;56083;48.774;8.942;2024-03-22T12:12:09;3.80;;;2.13;;
69030;SDS011;56083;48.774;8.942;2024-03-22T12:14:36;5.22;;;2.20;;
69030;SDS011;56083;48.774;8.942;2024-03-22T12:17:02;6.22;;;2.40;;
69030;SDS011;56083;48.774;8.942;2024-03-22T12:19:28;5.15;;;2.65;;
69030;SDS011;56083;48.774;8.942;2024-03-22T12:21:55;5.25;;;2.08;;
69030;SDS011;56083;48.774;8.942;2024-03-22T12:24:21;7.85;;;2.42;;
69030;SDS011;56083;48.774;8.942;2024-03-22T12:26:47;4.65;;;2.22;;
69030;SDS011;56083;48.774;8.942;2024-03-22T12:29:15;8.00;;;2.08;;
69030;SDS011;56083;48.774;8.942;2024-03-22T12:31:41;4.95;;;2.28;;
69030;SDS011;56083;48.774;8.942;2024-03-22T12:34:07;5.82;;;2.28;;
69030;SDS011;56083;48.774;8.942;2024-03-22T12:36:33;6.80;;;2.15;;
69030;SDS011;56083;48.774;8.942;2024-03-22T12:38:59;5.70;;;2.10;;
69030;SDS011;56083;48.774;8.942;2024-03-22T12:41:25;3.88;;;2.45;;
69030;SDS011;56083;48.774;8.942;2024-03-22T12:43:56;4.63;;;2.20;;
69030;SDS011;56083;48.774;8.942;2024-03-22T12:46:22;6.60;;;2.72;;
69030;SDS011;56083;48.774;8.942;2024-03-22T12:48:49;5.65;;;2.20;;
69030;SDS011;56083;48.774;8.942;2024-03-22T12:51:15;5.72;;;1.98;;
69030;SDS011;56083;48.774;8.942;2024-03-22T12:53:41;5.13;;;2.10;;
69030;SDS011;56083;48.774;8.942;2024-03-22T12:56:07;3.80;;;1.85;;
69030;SDS011;56083;48.774;8.942;2024-03-22T12:58:33;5.80;;;2.17;;
69030;SDS011;56083;48.774;8.942;2024-03-22T13:00:59;3.97;;;2.13;;
69030;SDS011;56083;48.774;8.942;2024-03-22T13:03:27;6.10;;;1.92;;
69030;SDS011;56083;48.774;8.942;2024-03-22T13:05:53;4.57;;;1.95;;
69030;SDS011;56083;48.774;8.942;2024-03-22T13:08:19;4.15;;;1.80;;
69030;SDS011;56083;48.774;8.942;2024-03-22T13:10:45;3.35;;;1.85;;
69030;SDS011;56083;48.774;8.942;2024-03-22T13:13:13;4.57;;;2.15;;
69030;SDS011;56083;48.774;8.942;2024-03-22T13:15:41;4.78;;;2.00;;
69030;SDS011;56083;48.774;8.942;2024-03-22T13:18:07;5.65;;;2.13;;
69030;SDS011;56083;48.774;8.942;2024-03-22T13:20:35;4.72;;;1.70;;
69030;SDS011;56083;48.774;8.942;2024-03-22T13:23:01;8.40;;;2.20;;
69030;SDS011;56083;48.774;8.942;2024-03-22T13:25:27;4.07;;;2.00;;
69030;SDS011;56083;48.774;8.942;2024-03-22T13:27:53;5.55;;;2.38;;
69030;SDS011;56083;48.774;8.942;2024-03-22T13:30:19;7.75;;;2.08;;
69030;SDS011;56083;48.774;8.942;2024-03-22T13:32:45;5.47;;;1.85;;
69030;SDS011;56083;48.774;8.942;2024-03-22T13:35:11;4.95;;;2.00;;
69030;SDS011;56083;48.774;8.942;2024-03-22T13:37:38;6.15;;;1.80;;
69030;SDS011;56083;48.774;8.942;2024-03-22T13:40:05;6.75;;;1.90;;
69030;SDS011;56083;48.774;8.942;2024-03-22T13:42:31;10.13;;;2.00;;
69030;SDS011;56083;48.774;8.942;2024-03-22T13:44:57;3.67;;;1.83;;
69030;SDS011;56083;48.774;8.942;2024-03-22T13:47:24;4.25;;;1.50;;
69030;SDS011;56083;48.774;8.942;2024-03-22T13:49:50;4.22;;;1.73;;
69030;SDS011;56083;48.774;8.942;2024-03-22T13:52:16;4.18;;;1.38;;
69030;SDS011;56083;48.774;8.942;2024-03-22T13:54:43;4.90;;;1.50;;
69030;SDS011;56083;48.774;8.942;2024-03-22T13:57:09;4.85;;;1.55;;
69030;SDS011;56083;48.774;8.942;2024-03-22T13:59:36;5.57;;;1.60;;
69030;SDS011;56083;48.774;8.942;2024-03-22T14:02:02;4.32;;;1.58;;
69030;SDS011;56083;48.774;8.942;2024-03-22T14:04:29;3.17;;;1.13;;
69030;SDS011;56083;48.774;8.942;2024-03-22T14:06:54;9.05;;;1.13;;
69030;SDS011;56083;48.774;8.942;2024-03-22T14:09:20;4.45;;;1.05;;
69030;SDS011;56083;48.774;8.942;2024-03-22T14:11:46;3.33;;;1.00;;
69030;SDS011;56083;48.774;8.942;2024-03-22T14:14:14;5.43;;;1.10;;
69030;SDS011;56083;48.774;8.942;2024-03-22T14:16:40;4.75;;;1.10;;
69030;SDS011;56083;48.774;8.942;2024-03-22T14:19:07;3.58;;;1.08;;
69030;SDS011;56083;48.774;8.942;2024-03-22T14:21:34;5.68;;;1.10;;
69030;SDS011;56083;48.774;8.942;2024-03-22T14:24:00;2.40;;;0.90;;
69030;SDS011;56083;48.774;8.942;2024-03-22T14:26:26;4.18;;;1.35;;
69030;SDS011;56083;48.774;8.942;2024-03-22T14:28:52;2.50;;;1.10;;